createdAt,value
2023-01-29T00:02:52.345Z,1019.23
2023-01-29T00:05:52.308Z,1019.25
2023-01-29T00:08:52.311Z,1019.33
2023-01-29T00:11:52.305Z,1019.33
2023-01-29T00:14:52.329Z,1019.32
2023-01-29T00:17:52.309Z,1019.31
2023-01-29T00:20:52.312Z,1019.36
2023-01-29T00:23:52.307Z,1019.43
2023-01-29T00:26:52.320Z,1019.47
2023-01-29T00:29:52.314Z,1019.49
2023-01-29T00:32:52.313Z,1019.59
2023-01-29T00:35:52.313Z,1019.55
2023-01-29T00:38:52.302Z,1019.49
2023-01-29T00:41:52.312Z,1019.5
2023-01-29T00:44:52.319Z,1019.43
2023-01-29T00:47:52.323Z,1019.42
2023-01-29T00:50:52.306Z,1019.39
2023-01-29T00:53:52.309Z,1019.33
2023-01-29T00:56:52.305Z,1019.28
2023-01-29T00:59:52.316Z,1019.32
2023-01-29T01:02:52.307Z,1019.28
2023-01-29T01:05:52.311Z,1019.31
2023-01-29T01:08:52.309Z,1019.25
2023-01-29T01:11:52.306Z,1019.18
2023-01-29T01:14:52.309Z,1019.1
2023-01-29T01:17:52.309Z,1019.19
2023-01-29T01:20:52.311Z,1019.21
2023-01-29T01:23:52.317Z,1019.2
2023-01-29T01:26:52.315Z,1019.16
2023-01-29T01:29:52.332Z,1019.16
2023-01-29T01:32:52.308Z,1019.15
2023-01-29T01:35:52.308Z,1019.05
2023-01-29T01:38:52.307Z,1018.94
2023-01-29T01:41:52.310Z,1018.95
2023-01-29T01:44:52.313Z,1018.83
2023-01-29T01:47:52.330Z,1018.79
2023-01-29T01:50:52.346Z,1018.72
2023-01-29T01:53:52.314Z,1018.72
2023-01-29T01:56:52.313Z,1018.66
2023-01-29T01:59:52.316Z,1018.63
2023-01-29T02:02:52.303Z,1018.67
2023-01-29T02:05:52.311Z,1018.67
2023-01-29T02:08:52.320Z,1018.69
2023-01-29T02:11:52.304Z,1018.7
2023-01-29T02:14:52.319Z,1018.66
2023-01-29T02:17:52.311Z,1018.62
2023-01-29T02:20:52.308Z,1018.68
2023-01-29T02:23:52.521Z,1018.69
2023-01-29T02:26:52.310Z,1018.67
2023-01-29T02:29:52.308Z,1018.68
2023-01-29T02:32:52.317Z,1018.71
2023-01-29T02:35:52.458Z,1018.76
2023-01-29T02:38:52.316Z,1018.77
2023-01-29T02:41:52.321Z,1018.86
2023-01-29T02:44:52.315Z,1018.96
2023-01-29T02:47:52.308Z,1018.98
2023-01-29T02:50:52.311Z,1019.01
2023-01-29T02:53:52.316Z,1019.02
2023-01-29T02:56:52.318Z,1019.06
2023-01-29T02:59:52.309Z,1019.05
2023-01-29T03:02:52.313Z,1019.03
2023-01-29T03:05:52.314Z,1019.06
2023-01-29T03:08:52.310Z,1019
2023-01-29T03:11:52.311Z,1018.89
2023-01-29T03:14:52.328Z,1018.84
2023-01-29T03:17:52.315Z,1018.81
2023-01-29T03:20:52.311Z,1018.88
2023-01-29T03:23:52.315Z,1018.91
2023-01-29T03:26:52.315Z,1018.89
2023-01-29T03:29:52.326Z,1018.89
2023-01-29T03:32:52.322Z,1019
2023-01-29T03:35:52.322Z,1019.08
2023-01-29T03:38:52.325Z,1019.06
2023-01-29T03:41:52.324Z,1019.07
2023-01-29T03:44:52.326Z,1018.99
2023-01-29T03:47:52.330Z,1018.97
2023-01-29T03:50:52.351Z,1018.92
2023-01-29T03:53:52.340Z,1018.82
2023-01-29T03:56:52.351Z,1018.83
2023-01-29T03:59:52.368Z,1018.94
2023-01-29T04:02:52.320Z,1019.04
2023-01-29T04:05:52.329Z,1019
2023-01-29T04:08:52.337Z,1019.07
2023-01-29T04:11:52.348Z,1019.07
2023-01-29T04:14:52.332Z,1018.96
2023-01-29T04:17:52.325Z,1018.81
2023-01-29T04:20:52.326Z,1018.74
2023-01-29T04:23:52.328Z,1018.64
2023-01-29T04:26:52.329Z,1018.57
2023-01-29T04:29:52.324Z,1018.63
2023-01-29T04:32:52.392Z,1018.53
2023-01-29T04:35:52.335Z,1018.5
2023-01-29T04:38:52.333Z,1018.58
2023-01-29T04:41:52.339Z,1018.69
2023-01-29T04:44:52.343Z,1018.77
2023-01-29T04:47:52.348Z,1018.77
2023-01-29T04:50:52.345Z,1018.79
2023-01-29T04:53:52.340Z,1018.86
2023-01-29T04:56:52.341Z,1018.89
2023-01-29T04:59:52.354Z,1018.91
2023-01-29T05:02:52.379Z,1018.91
2023-01-29T05:05:52.343Z,1018.82
2023-01-29T05:08:52.348Z,1018.78
2023-01-29T05:11:52.352Z,1018.73
2023-01-29T05:14:52.350Z,1018.76
2023-01-29T05:17:52.349Z,1018.79
2023-01-29T05:20:52.359Z,1018.8
2023-01-29T05:23:52.349Z,1018.78
2023-01-29T05:26:52.359Z,1018.72
2023-01-29T05:29:52.346Z,1018.55
2023-01-29T05:32:52.348Z,1018.5
2023-01-29T05:35:52.349Z,1018.56
2023-01-29T05:38:52.346Z,1018.6
2023-01-29T05:41:52.352Z,1018.7
2023-01-29T05:44:52.397Z,1018.75
2023-01-29T05:47:52.352Z,1018.79
2023-01-29T05:50:52.384Z,1018.75
2023-01-29T05:53:52.355Z,1018.76
2023-01-29T05:56:52.350Z,1018.73
2023-01-29T05:59:52.357Z,1018.74
2023-01-29T06:02:52.423Z,1018.76
2023-01-29T06:05:52.361Z,1018.81
2023-01-29T06:08:52.352Z,1018.8
2023-01-29T06:11:52.356Z,1018.76
2023-01-29T06:14:52.355Z,1018.76
2023-01-29T06:17:52.358Z,1018.86
2023-01-29T06:20:52.358Z,1018.74
2023-01-29T06:23:52.363Z,1018.69
2023-01-29T06:26:52.357Z,1018.67
2023-01-29T06:29:52.362Z,1018.66
2023-01-29T06:32:52.366Z,1018.66
2023-01-29T06:35:52.363Z,1018.6
2023-01-29T06:38:52.362Z,1018.5
2023-01-29T06:41:52.370Z,1018.48
2023-01-29T06:44:52.359Z,1018.52
2023-01-29T06:47:52.356Z,1018.55
2023-01-29T06:50:52.361Z,1018.54
2023-01-29T06:53:52.360Z,1018.59
2023-01-29T06:56:52.360Z,1018.66
2023-01-29T06:59:52.373Z,1018.62
2023-01-29T07:02:52.358Z,1018.67
2023-01-29T07:05:52.358Z,1018.74
2023-01-29T07:08:52.359Z,1018.76
2023-01-29T07:11:52.359Z,1018.83
2023-01-29T07:14:52.355Z,1018.94
2023-01-29T07:17:52.364Z,1018.99
2023-01-29T07:20:52.364Z,1019
2023-01-29T07:23:52.362Z,1019.01
2023-01-29T07:26:52.361Z,1018.99
2023-01-29T07:29:52.364Z,1018.91
2023-01-29T07:32:52.362Z,1019
2023-01-29T07:35:52.364Z,1019.08
2023-01-29T07:38:52.378Z,1019.08
2023-01-29T07:41:52.362Z,1019.14
2023-01-29T07:44:52.373Z,1019.05
2023-01-29T07:47:52.376Z,1018.92
2023-01-29T07:50:52.386Z,1018.83
2023-01-29T07:53:52.366Z,1018.74
2023-01-29T07:56:52.370Z,1018.73
2023-01-29T07:59:52.363Z,1018.66
2023-01-29T08:02:52.380Z,1018.64
2023-01-29T08:05:52.369Z,1018.76
2023-01-29T08:08:52.362Z,1018.78
2023-01-29T08:11:52.363Z,1018.83
2023-01-29T08:14:52.364Z,1018.96
2023-01-29T08:17:57.676Z,1019.09
2023-01-29T08:20:52.927Z,1019.14
2023-01-29T08:23:52.367Z,1019.09
2023-01-29T08:26:52.363Z,1018.93
2023-01-29T08:29:52.369Z,1018.81
2023-01-29T08:32:52.364Z,1018.84
2023-01-29T08:35:52.372Z,1018.84
2023-01-29T08:38:52.362Z,1018.85
2023-01-29T08:41:52.361Z,1018.9
2023-01-29T08:44:52.379Z,1019
2023-01-29T08:47:52.373Z,1019
2023-01-29T08:50:52.373Z,1018.97
2023-01-29T08:53:52.380Z,1018.87
2023-01-29T08:56:52.372Z,1018.92
2023-01-29T08:59:52.401Z,1019.03
2023-01-29T09:02:52.385Z,1019.02
2023-01-29T09:05:52.370Z,1019
2023-01-29T09:08:52.368Z,1019.08
2023-01-29T09:11:52.367Z,1019.18
2023-01-29T09:14:52.382Z,1019.23
2023-01-29T09:17:52.375Z,1019.31
2023-01-29T09:20:52.357Z,1019.43
2023-01-29T09:23:52.367Z,1019.43
2023-01-29T09:26:52.366Z,1019.41
2023-01-29T09:29:52.374Z,1019.42
2023-01-29T09:32:54.100Z,1019.44
2023-01-29T09:35:52.374Z,1019.54
2023-01-29T09:38:52.370Z,1019.61
2023-01-29T09:41:52.389Z,1019.56
2023-01-29T09:44:52.376Z,1019.49
2023-01-29T09:47:52.374Z,1019.43
2023-01-29T09:50:52.375Z,1019.33
2023-01-29T09:53:52.377Z,1019.41
2023-01-29T09:56:52.384Z,1019.43
2023-01-29T09:59:52.376Z,1019.43
2023-01-29T10:02:52.376Z,1019.47
2023-01-29T10:05:52.375Z,1019.48
2023-01-29T10:08:52.371Z,1019.36
2023-01-29T10:11:52.370Z,1019.24
2023-01-29T10:14:52.382Z,1019.13
2023-01-29T10:17:52.376Z,1018.98
2023-01-29T10:20:52.381Z,1018.91
2023-01-29T10:23:52.375Z,1018.91
2023-01-29T10:26:52.372Z,1018.87
2023-01-29T10:29:52.366Z,1018.81
2023-01-29T10:32:52.366Z,1018.81
2023-01-29T10:35:53.107Z,1018.74
2023-01-29T10:38:52.374Z,1018.72
2023-01-29T10:41:53.914Z,1018.69
2023-01-29T10:44:52.402Z,1018.66
2023-01-29T10:47:52.448Z,1018.64
2023-01-29T10:50:52.388Z,1018.53
2023-01-29T10:53:52.383Z,1018.52
2023-01-29T10:56:52.389Z,1018.48
2023-01-29T10:59:52.385Z,1018.36
2023-01-29T11:02:52.652Z,1018.33
2023-01-29T11:05:52.374Z,1018.26
2023-01-29T11:08:52.380Z,1018.22
2023-01-29T11:11:52.386Z,1018.19
2023-01-29T11:14:52.378Z,1018.09
2023-01-29T11:17:52.382Z,1018.03
2023-01-29T11:20:52.382Z,1018.03
2023-01-29T11:23:52.427Z,1018.07
2023-01-29T11:26:52.379Z,1018.01
2023-01-29T11:29:52.381Z,1018.05
2023-01-29T11:32:52.383Z,1018.06
2023-01-29T11:35:52.384Z,1017.99
2023-01-29T11:38:52.379Z,1017.89
2023-01-29T11:41:52.391Z,1017.76
2023-01-29T11:44:52.382Z,1017.75
2023-01-29T11:47:52.392Z,1017.74
2023-01-29T11:50:52.397Z,1017.72
2023-01-29T11:53:52.384Z,1017.63
2023-01-29T11:56:52.380Z,1017.62
2023-01-29T11:59:52.391Z,1017.55
2023-01-29T12:02:52.422Z,1017.54
2023-01-29T12:05:52.444Z,1017.45
2023-01-29T12:08:52.377Z,1017.39
2023-01-29T12:11:52.384Z,1017.37
2023-01-29T12:14:52.386Z,1017.36
2023-01-29T12:17:52.388Z,1017.38
2023-01-29T12:20:52.387Z,1017.31
2023-01-29T12:23:52.382Z,1017.22
2023-01-29T12:26:52.387Z,1017.11
2023-01-29T12:29:52.383Z,1016.99
2023-01-29T12:32:52.389Z,1016.94
2023-01-29T12:35:52.386Z,1016.89
2023-01-29T12:38:52.389Z,1016.89
2023-01-29T12:41:52.392Z,1016.81
2023-01-29T12:44:52.407Z,1016.77
2023-01-29T12:47:52.384Z,1016.85
2023-01-29T12:50:52.374Z,1016.86
2023-01-29T12:53:52.390Z,1016.8
2023-01-29T12:56:52.381Z,1016.72
2023-01-29T12:59:52.380Z,1016.64
2023-01-29T13:02:52.451Z,1016.64
2023-01-29T13:05:52.385Z,1016.53
2023-01-29T13:08:52.388Z,1016.41
2023-01-29T13:11:52.382Z,1016.35
2023-01-29T13:14:52.387Z,1016.41
2023-01-29T13:17:52.382Z,1016.33
2023-01-29T13:20:52.384Z,1016.31
2023-01-29T13:23:52.395Z,1016.28
2023-01-29T13:26:52.389Z,1016.3
2023-01-29T13:29:52.386Z,1016.3
2023-01-29T13:32:52.373Z,1016.27
2023-01-29T13:35:52.386Z,1016.28
2023-01-29T13:38:52.386Z,1016.27
2023-01-29T13:41:52.385Z,1016.32
2023-01-29T13:44:52.384Z,1016.29
2023-01-29T13:47:52.409Z,1016.19
2023-01-29T13:50:52.384Z,1016.16
2023-01-29T13:53:52.389Z,1016.2
2023-01-29T13:56:52.391Z,1016.12
2023-01-29T13:59:52.394Z,1016.09
2023-01-29T14:02:52.395Z,1016.02
2023-01-29T14:05:52.384Z,1016.02
2023-01-29T14:08:52.380Z,1016.03
2023-01-29T14:11:52.383Z,1015.96
2023-01-29T14:14:52.396Z,1015.96
2023-01-29T14:17:52.390Z,1015.97
2023-01-29T14:20:52.386Z,1016.02
2023-01-29T14:23:52.385Z,1016.01
2023-01-29T14:26:52.383Z,1015.97
2023-01-29T14:29:52.394Z,1015.96
2023-01-29T14:32:52.404Z,1015.94
2023-01-29T14:35:52.393Z,1015.89
2023-01-29T14:38:52.688Z,1015.83
2023-01-29T14:41:52.397Z,1015.81
2023-01-29T14:44:52.392Z,1015.78
2023-01-29T14:47:52.401Z,1015.8
2023-01-29T14:50:52.410Z,1015.74
2023-01-29T14:53:52.406Z,1015.74
2023-01-29T14:56:52.401Z,1015.72
2023-01-29T14:59:52.399Z,1015.7
2023-01-29T15:03:01.289Z,1015.7
2023-01-29T15:05:52.392Z,1015.65
2023-01-29T15:08:52.395Z,1015.58
2023-01-29T15:11:52.410Z,1015.48
2023-01-29T15:14:52.403Z,1015.53
2023-01-29T15:17:52.412Z,1015.49
2023-01-29T15:20:52.403Z,1015.43
2023-01-29T15:23:52.396Z,1015.41
2023-01-29T15:26:52.465Z,1015.34
2023-01-29T15:29:52.409Z,1015.26
2023-01-29T15:32:52.428Z,1015.23
2023-01-29T15:35:56.082Z,1015.18
2023-01-29T15:38:52.395Z,1015.18
2023-01-29T15:41:52.406Z,1015.13
2023-01-29T15:44:52.409Z,1015.1
2023-01-29T15:47:52.393Z,1015.03
2023-01-29T15:50:52.399Z,1014.98
2023-01-29T15:53:52.410Z,1014.96
2023-01-29T15:56:52.468Z,1014.97
2023-01-29T15:59:52.407Z,1014.99
2023-01-29T16:02:52.485Z,1014.95
2023-01-29T16:05:52.421Z,1014.9
2023-01-29T16:08:52.406Z,1014.87
2023-01-29T16:11:52.416Z,1014.89
2023-01-29T16:14:52.405Z,1014.9
2023-01-29T16:17:52.408Z,1014.98
2023-01-29T16:20:52.417Z,1015.08
2023-01-29T16:23:52.419Z,1015.16
2023-01-29T16:26:52.417Z,1015.13
2023-01-29T16:29:52.407Z,1015.18
2023-01-29T16:32:52.413Z,1015.18
2023-01-29T16:35:52.420Z,1015.25
2023-01-29T16:38:52.411Z,1015.29
2023-01-29T16:41:52.415Z,1015.35
2023-01-29T16:44:52.444Z,1015.33
2023-01-29T16:47:52.417Z,1015.35
2023-01-29T16:50:55.197Z,1015.34
2023-01-29T16:53:52.428Z,1015.37
2023-01-29T16:56:52.418Z,1015.36
2023-01-29T16:59:52.426Z,1015.39
2023-01-29T17:02:52.426Z,1015.39
2023-01-29T17:05:52.426Z,1015.4
2023-01-29T17:08:52.423Z,1015.45
2023-01-29T17:11:52.428Z,1015.48
2023-01-29T17:14:52.423Z,1015.4
2023-01-29T17:17:52.424Z,1015.37
2023-01-29T17:20:52.419Z,1015.39
2023-01-29T17:23:52.427Z,1015.42
2023-01-29T17:26:52.432Z,1015.42
2023-01-29T17:29:53.363Z,1015.44
2023-01-29T17:32:52.439Z,1015.42
2023-01-29T17:35:52.441Z,1015.45
2023-01-29T17:38:52.449Z,1015.43
2023-01-29T17:41:52.446Z,1015.48
2023-01-29T17:44:52.464Z,1015.46
2023-01-29T17:47:52.460Z,1015.45
2023-01-29T17:50:52.455Z,1015.49
2023-01-29T17:53:52.440Z,1015.56
2023-01-29T17:56:52.452Z,1015.5
2023-01-29T17:59:52.449Z,1015.48
2023-01-29T18:02:52.453Z,1015.45
2023-01-29T18:05:52.453Z,1015.43
2023-01-29T18:08:52.452Z,1015.33
2023-01-29T18:11:52.452Z,1015.29
2023-01-29T18:14:52.454Z,1015.25
2023-01-29T18:17:52.446Z,1015.22
2023-01-29T18:20:52.435Z,1015.14
2023-01-29T18:23:52.444Z,1015.04
2023-01-29T18:26:52.462Z,1015.07
2023-01-29T18:29:52.458Z,1015.08
2023-01-29T18:32:52.462Z,1015.06
2023-01-29T18:35:52.464Z,1015.04
2023-01-29T18:38:52.473Z,1015.01
2023-01-29T18:41:52.461Z,1015
2023-01-29T18:44:52.457Z,1014.91
2023-01-29T18:47:52.456Z,1014.81
2023-01-29T18:50:52.513Z,1014.89
2023-01-29T18:53:52.491Z,1014.94
2023-01-29T18:57:11.625Z,1014.92
2023-01-29T18:59:52.456Z,1014.9
2023-01-29T19:02:52.483Z,1014.82
2023-01-29T19:05:52.504Z,1014.83
2023-01-29T19:08:52.501Z,1014.79
2023-01-29T19:11:52.511Z,1014.79
2023-01-29T19:14:52.473Z,1014.75
2023-01-29T19:17:52.494Z,1014.66
2023-01-29T19:20:52.463Z,1014.7
2023-01-29T19:23:52.469Z,1014.66
2023-01-29T19:26:52.474Z,1014.66
2023-01-29T19:29:52.467Z,1014.64
2023-01-29T19:32:52.481Z,1014.58
2023-01-29T19:35:52.471Z,1014.53
2023-01-29T19:38:52.468Z,1014.54
2023-01-29T19:41:52.478Z,1014.5
2023-01-29T19:44:52.469Z,1014.5
2023-01-29T19:47:52.535Z,1014.51
2023-01-29T19:50:52.467Z,1014.55
2023-01-29T19:53:52.482Z,1014.55
2023-01-29T19:56:52.488Z,1014.61
2023-01-29T19:59:52.484Z,1014.6
2023-01-29T20:02:52.477Z,1014.63
2023-01-29T20:05:52.477Z,1014.59
2023-01-29T20:08:52.487Z,1014.64
2023-01-29T20:11:52.476Z,1014.66
2023-01-29T20:14:52.478Z,1014.64
2023-01-29T20:17:52.483Z,1014.61
2023-01-29T20:20:52.477Z,1014.61
2023-01-29T20:23:52.473Z,1014.61
2023-01-29T20:26:52.481Z,1014.53
2023-01-29T20:29:52.531Z,1014.52
2023-01-29T20:32:52.480Z,1014.46
2023-01-29T20:35:52.477Z,1014.49
2023-01-29T20:38:52.487Z,1014.48
2023-01-29T20:41:52.494Z,1014.38
2023-01-29T20:44:52.504Z,1014.31
2023-01-29T20:47:52.474Z,1014.28
2023-01-29T20:50:52.483Z,1014.22
2023-01-29T20:53:52.491Z,1014.19
2023-01-29T20:56:52.478Z,1014.14
2023-01-29T20:59:52.485Z,1014.11
2023-01-29T21:02:52.480Z,1014.11
2023-01-29T21:05:52.490Z,1014.05
2023-01-29T21:08:52.484Z,1014.03
2023-01-29T21:11:52.487Z,1013.88
2023-01-29T21:14:52.479Z,1013.85
2023-01-29T21:17:52.482Z,1013.92
2023-01-29T21:20:52.473Z,1013.9
2023-01-29T21:23:52.474Z,1013.96
2023-01-29T21:26:52.478Z,1013.81
2023-01-29T21:29:52.508Z,1013.77
2023-01-29T21:32:52.479Z,1013.64
2023-01-29T21:35:52.482Z,1013.59
2023-01-29T21:38:52.484Z,1013.47
2023-01-29T21:41:52.474Z,1013.35
2023-01-29T21:44:52.474Z,1013.31
2023-01-29T21:47:52.492Z,1013.36
2023-01-29T21:50:52.477Z,1013.27
2023-01-29T21:53:52.481Z,1013.13
2023-01-29T21:56:52.484Z,1012.93
2023-01-29T21:59:52.915Z,1012.8
2023-01-29T22:02:52.499Z,1012.83
2023-01-29T22:05:52.474Z,1012.86
2023-01-29T22:08:52.481Z,1012.89
2023-01-29T22:11:52.482Z,1012.88
2023-01-29T22:14:52.491Z,1012.95
2023-01-29T22:17:52.495Z,1012.96
2023-01-29T22:20:52.495Z,1012.83
2023-01-29T22:23:52.491Z,1012.84
2023-01-29T22:26:52.489Z,1012.75
2023-01-29T22:29:52.513Z,1012.77
2023-01-29T22:32:52.483Z,1012.8
2023-01-29T22:35:52.477Z,1012.7
2023-01-29T22:38:52.487Z,1012.6
2023-01-29T22:41:52.496Z,1012.62
2023-01-29T22:44:52.494Z,1012.65
2023-01-29T22:47:52.495Z,1012.61
2023-01-29T22:50:52.481Z,1012.55
2023-01-29T22:53:52.494Z,1012.52
2023-01-29T22:56:52.490Z,1012.56
2023-01-29T22:59:52.492Z,1012.5
2023-01-29T23:02:52.491Z,1012.48
2023-01-29T23:05:52.484Z,1012.37
2023-01-29T23:08:52.495Z,1012.23
2023-01-29T23:11:52.478Z,1012.19
2023-01-29T23:14:52.495Z,1012.21
2023-01-29T23:17:52.504Z,1012.18
2023-01-29T23:20:52.494Z,1012.18
2023-01-29T23:23:52.487Z,1012.25
2023-01-29T23:26:52.493Z,1012.24
2023-01-29T23:29:52.496Z,1012.15
2023-01-29T23:32:52.498Z,1012.29
2023-01-29T23:35:52.500Z,1012.38
2023-01-29T23:38:52.500Z,1012.36
2023-01-29T23:41:52.532Z,1012.28
2023-01-29T23:44:52.517Z,1012.16
2023-01-29T23:47:52.513Z,1012.23
2023-01-29T23:50:52.506Z,1012.2
2023-01-29T23:53:52.505Z,1012.16
2023-01-29T23:56:52.515Z,1012.09
2023-01-29T23:59:52.499Z,1012.04
